<?xml version="1.0" encoding="UTF-8" standalone="no" ?>
<gpx xmlns="http://www.topografix.com/GPX/1/1" xmlns:xsi="http://www.w3.org/2001/XMLSchema-instance" xsi:schemaLocation="http://www.topografix.com/GPX/1/1 http://www.topografix.com/GPX/1/1/gpx.xsd" version="1.1" creator="VisuGPX - https://www.visugpx.com">
  <metadata>
    <name>col de porte etc</name>
    <desc><![CDATA[Col de porte et mille martyrs]]></desc>
  </metadata>
  <trk>
    <name><![CDATA[20200812_110051.gpx]]></name>
    <trkseg>
      <trkpt lat="45.4384" lon="5.7034">
        <ele>705.8037</ele>
        <time>2020-08-12T09:01:21Z</time>
      </trkpt>
      <trkpt lat="45.4384" lon="5.7034">
        <ele>705.8037</ele>
        <time>2020-08-12T09:01:21Z</time>
      </trkpt>
      <trkpt lat="45.43821" lon="5.70336">
        <ele>708.28784</ele>
        <time>2020-08-12T09:01:52Z</time>
      </trkpt>
      <trkpt lat="45.43818" lon="5.70335">
        <ele>707.8483</ele>
        <time>2020-08-12T09:02:06Z</time>
      </trkpt>
      <trkpt lat="45.43813" lon="5.70324">
        <ele>706.92224</ele>
        <time>2020-08-12T09:02:51Z</time>
      </trkpt>
      <trkpt lat="45.4381" lon="5.70318">
        <ele>708.6857</ele>
        <time>2020-08-12T09:02:56Z</time>
      </trkpt>
      <trkpt lat="45.43816" lon="5.70326">
        <ele>710.7253</ele>
        <time>2020-08-12T09:03:26Z</time>
      </trkpt>
      <trkpt lat="45.43823" lon="5.70327">
        <ele>711.3477</ele>
        <time>2020-08-12T09:03:32Z</time>
      </trkpt>
      <trkpt lat="45.43841" lon="5.70319">
        <ele>711.6226</ele>
        <time>2020-08-12T09:03:41Z</time>
      </trkpt>
      <trkpt lat="45.43848" lon="5.70311">
        <ele>712.83453</ele>
        <time>2020-08-12T09:03:46Z</time>
      </trkpt>
      <trkpt lat="45.43852" lon="5.70306">
        <ele>711.6483</ele>
        <time>2020-08-12T09:03:51Z</time>
      </trkpt>
      <trkpt lat="45.43853" lon="5.70292">
        <ele>714.0261</ele>
        <time>2020-08-12T09:03:56Z</time>
      </trkpt>
      <trkpt lat="45.43855" lon="5.70285">
        <ele>715.5719</ele>
        <time>2020-08-12T09:04:01Z</time>
      </trkpt>
      <trkpt lat="45.43858" lon="5.70276">
        <ele>716.2737</ele>
        <time>2020-08-12T09:04:07Z</time>
      </trkpt>
      <trkpt lat="45.43872" lon="5.70262">
        <ele>717.6816</ele>
        <time>2020-08-12T09:04:17Z</time>
      </trkpt>
      <trkpt lat="45.439" lon="5.70252">
        <ele>718.2037</ele>
        <time>2020-08-12T09:04:26Z</time>
      </trkpt>
      <trkpt lat="45.43918" lon="5.70249">
        <ele>718.01324</ele>
        <time>2020-08-12T09:04:31Z</time>
      </trkpt>
      <trkpt lat="45.43931" lon="5.70241">
        <ele>718.2197</ele>
        <time>2020-08-12T09:04:36Z</time>
      </trkpt>
      <trkpt lat="45.43946" lon="5.70228">
        <ele>719.10455</ele>
        <time>2020-08-12T09:04:41Z</time>
      </trkpt>
      <trkpt lat="45.43956" lon="5.70222">
        <ele>719.49725</ele>
        <time>2020-08-12T09:04:46Z</time>
      </trkpt>
      <trkpt lat="45.43966" lon="5.70212">
        <ele>719.5871</ele>
        <time>2020-08-12T09:04:51Z</time>
      </trkpt>
      <trkpt lat="45.43971" lon="5.70213">
        <ele>715.9656</ele>
        <time>2020-08-12T09:04:56Z</time>
      </trkpt>
      <trkpt lat="45.43971" lon="5.70245">
        <ele>715.0392</ele>
        <time>2020-08-12T09:05:02Z</time>
      </trkpt>
      <trkpt lat="45.4396" lon="5.70311">
        <ele>709.9039</ele>
        <time>2020-08-12T09:05:12Z</time>
      </trkpt>
      <trkpt lat="45.44008" lon="5.70353">
        <ele>705.82404</ele>
        <time>2020-08-12T09:05:21Z</time>
      </trkpt>
      <trkpt lat="45.44041" lon="5.70339">
        <ele>704.7472</ele>
        <time>2020-08-12T09:05:26Z</time>
      </trkpt>
      <trkpt lat="45.4407" lon="5.70371">
        <ele>700.3465</ele>
        <time>2020-08-12T09:05:31Z</time>
      </trkpt>
      <trkpt lat="45.44102" lon="5.70388">
        <ele>700.48865</ele>
        <time>2020-08-12T09:05:36Z</time>
      </trkpt>
      <trkpt lat="45.44127" lon="5.70374">
        <ele>700.7966</ele>
        <time>2020-08-12T09:05:41Z</time>
      </trkpt>
      <trkpt lat="45.44151" lon="5.70359">
        <ele>701.46906</ele>
        <time>2020-08-12T09:05:47Z</time>
      </trkpt>
      <trkpt lat="45.44178" lon="5.70345">
        <ele>701.5695</ele>
        <time>2020-08-12T09:05:57Z</time>
      </trkpt>
      <trkpt lat="45.44183" lon="5.70366">
        <ele>700.6843</ele>
        <time>2020-08-12T09:06:06Z</time>
      </trkpt>
      <trkpt lat="45.44178" lon="5.70381">
        <ele>700.5667</ele>
        <time>2020-08-12T09:06:11Z</time>
      </trkpt>
      <trkpt lat="45.44174" lon="5.70405">
        <ele>700.045</ele>
        <time>2020-08-12T09:06:16Z</time>
      </trkpt>
      <trkpt lat="45.44176" lon="5.70438">
        <ele>698.2662</ele>
        <time>2020-08-12T09:06:21Z</time>
      </trkpt>
      <trkpt lat="45.44179" lon="5.70486">
        <ele>696.70654</ele>
        <time>2020-08-12T09:06:26Z</time>
      </trkpt>
      <trkpt lat="45.44185" lon="5.70541">
        <ele>694.1584</ele>
        <time>2020-08-12T09:06:32Z</time>
      </trkpt>
      <trkpt lat="45.44215" lon="5.70659">
        <ele>688.3513</ele>
        <time>2020-08-12T09:06:42Z</time>
      </trkpt>
      <trkpt lat="45.44129" lon="5.70711">
        <ele>682.73474</ele>
        <time>2020-08-12T09:06:51Z</time>
      </trkpt>
      <trkpt lat="45.44071" lon="5.70732">
        <ele>678.95013</ele>
        <time>2020-08-12T09:06:56Z</time>
      </trkpt>
      <trkpt lat="45.44013" lon="5.70747">
        <ele>672.9717</ele>
        <time>2020-08-12T09:07:01Z</time>
      </trkpt>
      <trkpt lat="45.43952" lon="5.70756">
        <ele>667.67267</ele>
        <time>2020-08-12T09:07:06Z</time>
      </trkpt>
      <trkpt lat="45.43899" lon="5.70793">
        <ele>664.37836</ele>
        <time>2020-08-12T09:07:11Z</time>
      </trkpt>
      <trkpt lat="45.43846" lon="5.70825">
        <ele>662.8744</ele>
        <time>2020-08-12T09:07:16Z</time>
      </trkpt>
      <trkpt lat="45.43787" lon="5.70823">
        <ele>659.9735</ele>
        <time>2020-08-12T09:07:21Z</time>
      </trkpt>
      <trkpt lat="45.43717" lon="5.70824">
        <ele>657.3845</ele>
        <time>2020-08-12T09:07:27Z</time>
      </trkpt>
      <trkpt lat="45.4362" lon="5.70848">
        <ele>650.3458</ele>
        <time>2020-08-12T09:07:36Z</time>
      </trkpt>
      <trkpt lat="45.43569" lon="5.70899">
        <ele>645.39966</ele>
        <time>2020-08-12T09:07:41Z</time>
      </trkpt>
      <trkpt lat="45.43535" lon="5.70942">
        <ele>640.3735</ele>
        <time>2020-08-12T09:07:46Z</time>
      </trkpt>
      <trkpt lat="45.43499" lon="5.70979">
        <ele>640.3042</ele>
        <time>2020-08-12T09:07:51Z</time>
      </trkpt>
      <trkpt lat="45.43457" lon="5.70976">
        <ele>640.205</ele>
        <time>2020-08-12T09:07:56Z</time>
      </trkpt>
      <trkpt lat="45.43409" lon="5.70979">
        <ele>638.7431</ele>
        <time>2020-08-12T09:08:01Z</time>
      </trkpt>
      <trkpt lat="45.43362" lon="5.70985">
        <ele>636.6363</ele>
        <time>2020-08-12T09:08:06Z</time>
      </trkpt>
      <trkpt lat="45.43317" lon="5.70976">
        <ele>637.936</ele>
        <time>2020-08-12T09:08:12Z</time>
      </trkpt>
      <trkpt lat="45.43262" lon="5.70968">
        <ele>638.5171</ele>
        <time>2020-08-12T09:08:22Z</time>
      </trkpt>
      <trkpt lat="45.4323" lon="5.70945">
        <ele>636.1064</ele>
        <time>2020-08-12T09:08:31Z</time>
      </trkpt>
      <trkpt lat="45.43214" lon="5.70924">
        <ele>636.1917</ele>
        <time>2020-08-12T09:08:36Z</time>
      </trkpt>
      <trkpt lat="45.4319" lon="5.70905">
        <ele>635.67786</ele>
        <time>2020-08-12T09:08:41Z</time>
      </trkpt>
      <trkpt lat="45.43168" lon="5.70893">
        <ele>635.90063</ele>
        <time>2020-08-12T09:08:46Z</time>
      </trkpt>
      <trkpt lat="45.43143" lon="5.7088">
        <ele>636.59576</ele>
        <time>2020-08-12T09:08:51Z</time>
      </trkpt>
      <trkpt lat="45.43118" lon="5.70861">
        <ele>636.6693</ele>
        <time>2020-08-12T09:08:57Z</time>
      </trkpt>
      <trkpt lat="45.43058" lon="5.7086">
        <ele>635.23004</ele>
        <time>2020-08-12T09:09:07Z</time>
      </trkpt>
      <trkpt lat="45.43016" lon="5.70845">
        <ele>633.308</ele>
        <time>2020-08-12T09:09:16Z</time>
      </trkpt>
      <trkpt lat="45.42992" lon="5.70834">
        <ele>629.5538</ele>
        <time>2020-08-12T09:09:21Z</time>
      </trkpt>
      <trkpt lat="45.42984" lon="5.70828">
        <ele>625.5764</ele>
        <time>2020-08-12T09:09:26Z</time>
      </trkpt>
      <trkpt lat="45.42977" lon="5.70826">
        <ele>624.59814</ele>
        <time>2020-08-12T09:09:46Z</time>
      </trkpt>
      <trkpt lat="45.42955" lon="5.70825">
        <ele>625.63715</ele>
        <time>2020-08-12T09:09:52Z</time>
      </trkpt>
      <trkpt lat="45.42893" lon="5.70787">
        <ele>623.60925</ele>
        <time>2020-08-12T09:10:02Z</time>
      </trkpt>
      <trkpt lat="45.42839" lon="5.70744">
        <ele>623.7009</ele>
        <time>2020-08-12T09:10:11Z</time>
      </trkpt>
      <trkpt lat="45.42793" lon="5.70727">
        <ele>620.1677</ele>
        <time>2020-08-12T09:10:16Z</time>
      </trkpt>
      <trkpt lat="45.42756" lon="5.70716">
        <ele>619.62225</ele>
        <time>2020-08-12T09:10:21Z</time>
      </trkpt>
      <trkpt lat="45.42715" lon="5.70701">
        <ele>617.7398</ele>
        <time>2020-08-12T09:10:26Z</time>
      </trkpt>
      <trkpt lat="45.42668" lon="5.70689">
        <ele>609.7088</ele>
        <time>2020-08-12T09:10:31Z</time>
      </trkpt>
      <trkpt lat="45.42619" lon="5.7066">
        <ele>607.2298</ele>
        <time>2020-08-12T09:10:37Z</time>
      </trkpt>
      <trkpt lat="45.42539" lon="5.70623">
        <ele>607.63446</ele>
        <time>2020-08-12T09:10:47Z</time>
      </trkpt>
      <trkpt lat="45.42483" lon="5.7059">
        <ele>605.8051</ele>
        <time>2020-08-12T09:10:56Z</time>
      </trkpt>
      <trkpt lat="45.42456" lon="5.70562">
        <ele>604.91394</ele>
        <time>2020-08-12T09:11:01Z</time>
      </trkpt>
      <trkpt lat="45.42439" lon="5.70536">
        <ele>603.23065</ele>
        <time>2020-08-12T09:11:06Z</time>
      </trkpt>
      <trkpt lat="45.42421" lon="5.70519">
        <ele>598.8352</ele>
        <time>2020-08-12T09:11:11Z</time>
      </trkpt>
      <trkpt lat="45.424" lon="5.70517">
        <ele>602.5259</ele>
        <time>2020-08-12T09:11:16Z</time>
      </trkpt>
      <trkpt lat="45.42357" lon="5.70491">
        <ele>599.76556</ele>
        <time>2020-08-12T09:11:22Z</time>
      </trkpt>
      <trkpt lat="45.42312" lon="5.70397">
        <ele>596.09766</ele>
        <time>2020-08-12T09:11:32Z</time>
      </trkpt>
      <trkpt lat="45.42231" lon="5.70387">
        <ele>591.6769</ele>
        <time>2020-08-12T09:11:41Z</time>
      </trkpt>
      <trkpt lat="45.42189" lon="5.70361">
        <ele>587.66235</ele>
        <time>2020-08-12T09:11:46Z</time>
      </trkpt>
      <trkpt lat="45.42148" lon="5.70336">
        <ele>586.67615</ele>
        <time>2020-08-12T09:11:51Z</time>
      </trkpt>
      <trkpt lat="45.42102" lon="5.70306">
        <ele>582.4061</ele>
        <time>2020-08-12T09:11:56Z</time>
      </trkpt>
      <trkpt lat="45.42049" lon="5.70319">
        <ele>579.847</ele>
        <time>2020-08-12T09:12:01Z</time>
      </trkpt>
      <trkpt lat="45.41994" lon="5.70319">
        <ele>578.9345</ele>
        <time>2020-08-12T09:12:06Z</time>
      </trkpt>
      <trkpt lat="45.41937" lon="5.70302">
        <ele>576.20245</ele>
        <time>2020-08-12T09:12:11Z</time>
      </trkpt>
      <trkpt lat="45.41871" lon="5.70266">
        <ele>570.77655</ele>
        <time>2020-08-12T09:12:17Z</time>
      </trkpt>
      <trkpt lat="45.41787" lon="5.70187">
        <ele>565.55914</ele>
        <time>2020-08-12T09:12:27Z</time>
      </trkpt>
      <trkpt lat="45.41744" lon="5.70263">
        <ele>561.5757</ele>
        <time>2020-08-12T09:12:36Z</time>
      </trkpt>
      <trkpt lat="45.41737" lon="5.70344">
        <ele>560.2792</ele>
        <time>2020-08-12T09:12:41Z</time>
      </trkpt>
      <trkpt lat="45.41711" lon="5.70397">
        <ele>556.9745</ele>
        <time>2020-08-12T09:12:46Z</time>
      </trkpt>
      <trkpt lat="45.41661" lon="5.70406">
        <ele>551.5265</ele>
        <time>2020-08-12T09:12:51Z</time>
      </trkpt>
      <trkpt lat="45.41613" lon="5.70404">
        <ele>548.86456</ele>
        <time>2020-08-12T09:12:56Z</time>
      </trkpt>
      <trkpt lat="45.41557" lon="5.70402">
        <ele>547.9129</ele>
        <time>2020-08-12T09:13:02Z</time>
      </trkpt>
      <trkpt lat="45.41468" lon="5.7039">
        <ele>549.624</ele>
        <time>2020-08-12T09:13:12Z</time>
      </trkpt>
      <trkpt lat="45.41393" lon="5.70354">
        <ele>546.0129</ele>
        <time>2020-08-12T09:13:21Z</time>
      </trkpt>
      <trkpt lat="45.41349" lon="5.70343">
        <ele>540.74475</ele>
        <time>2020-08-12T09:13:26Z</time>
      </trkpt>
      <trkpt lat="45.41311" lon="5.7031">
        <ele>540.92633</ele>
        <time>2020-08-12T09:13:31Z</time>
      </trkpt>
      <trkpt lat="45.4127" lon="5.70286">
        <ele>542.7527</ele>
        <time>2020-08-12T09:13:36Z</time>
      </trkpt>
      <trkpt lat="45.41225" lon="5.70301">
        <ele>540.8722</ele>
        <time>2020-08-12T09:13:41Z</time>
      </trkpt>
      <trkpt lat="45.41189" lon="5.70351">
        <ele>540.8722</ele>
        <time>2020-08-12T09:13:47Z</time>
      </trkpt>
      <trkpt lat="45.41102" lon="5.70329">
        <ele>538.26135</ele>
        <time>2020-08-12T09:13:57Z</time>
      </trkpt>
      <trkpt lat="45.41029" lon="5.70319">
        <ele>536.5617</ele>
        <time>2020-08-12T09:14:06Z</time>
      </trkpt>
      <trkpt lat="45.40999" lon="5.7036">
        <ele>537.6881</ele>
        <time>2020-08-12T09:14:11Z</time>
      </trkpt>
      <trkpt lat="45.41001" lon="5.70423">
        <ele>537.22736</ele>
        <time>2020-08-12T09:14:16Z</time>
      </trkpt>
      <trkpt lat="45.4102" lon="5.70482">
        <ele>532.92816</ele>
        <time>2020-08-12T09:14:21Z</time>
      </trkpt>
      <trkpt lat="45.4104" lon="5.70546">
        <ele>530.8043</ele>
        <time>2020-08-12T09:14:26Z</time>
      </trkpt>
      <trkpt lat="45.41067" lon="5.7061">
        <ele>527.9867</ele>
        <time>2020-08-12T09:14:31Z</time>
      </trkpt>
      <trkpt lat="45.41089" lon="5.7067">
        <ele>526.1689</ele>
        <time>2020-08-12T09:14:36Z</time>
      </trkpt>
      <trkpt lat="45.41108" lon="5.70744">
        <ele>526.63153</ele>
        <time>2020-08-12T09:14:42Z</time>
      </trkpt>
      <trkpt lat="45.41133" lon="5.70854">
        <ele>528.68176</ele>
        <time>2020-08-12T09:14:51Z</time>
      </trkpt>
      <trkpt lat="45.41146" lon="5.70909">
        <ele>528.75073</ele>
        <time>2020-08-12T09:14:56Z</time>
      </trkpt>
      <trkpt lat="45.41142" lon="5.70956">
        <ele>528.1278</ele>
        <time>2020-08-12T09:15:01Z</time>
      </trkpt>
      <trkpt lat="45.41118" lon="5.70984">
        <ele>525.7529</ele>
        <time>2020-08-12T09:15:06Z</time>
      </trkpt>
      <trkpt lat="45.41081" lon="5.70998">
        <ele>525.4091</ele>
        <time>2020-08-12T09:15:11Z</time>
      </trkpt>
      <trkpt lat="45.41043" lon="5.71014">
        <ele>524.1857</ele>
        <time>2020-08-12T09:15:16Z</time>
      </trkpt>
      <trkpt lat="45.40999" lon="5.71018">
        <ele>522.6664</ele>
        <time>2020-08-12T09:15:21Z</time>
      </trkpt>
      <trkpt lat="45.40942" lon="5.71009">
        <ele>520.61566</ele>
        <time>2020-08-12T09:15:27Z</time>
      </trkpt>
      <trkpt lat="45.40849" lon="5.71049">
        <ele>517.81726</ele>
        <time>2020-08-12T09:15:37Z</time>
      </trkpt>
      <trkpt lat="45.4077" lon="5.71095">
        <ele>511.06345</ele>
        <time>2020-08-12T09:15:46Z</time>
      </trkpt>
      <trkpt lat="45.40732" lon="5.71107">
        <ele>511.67746</ele>
        <time>2020-08-12T09:15:51Z</time>
      </trkpt>
      <trkpt lat="45.4068" lon="5.71115">
        <ele>509.2279</ele>
        <time>2020-08-12T09:15:56Z</time>
      </trkpt>
      <trkpt lat="45.40632" lon="5.71145">
        <ele>507.43707</ele>
        <time>2020-08-12T09:16:01Z</time>
      </trkpt>
      <trkpt lat="45.40586" lon="5.71193">
        <ele>498.98297</ele>
        <time>2020-08-12T09:16:06Z</time>
      </trkpt>
      <trkpt lat="45.40536" lon="5.7126">
        <ele>495.02252</ele>
        <time>2020-08-12T09:16:12Z</time>
      </trkpt>
      <trkpt lat="45.40431" lon="5.71332">
        <ele>485.69904</ele>
        <time>2020-08-12T09:16:22Z</time>
      </trkpt>
      <trkpt lat="45.4036" lon="5.71388">
        <ele>482.5871</ele>
        <time>2020-08-12T09:16:31Z</time>
      </trkpt>
      <trkpt lat="45.40389" lon="5.71454">
        <ele>479.7308</ele>
        <time>2020-08-12T09:16:36Z</time>
      </trkpt>
      <trkpt lat="45.40425" lon="5.71522">
        <ele>476.91083</ele>
        <time>2020-08-12T09:16:41Z</time>
      </trkpt>
      <trkpt lat="45.40455" lon="5.71592">
        <ele>472.05005</ele>
        <time>2020-08-12T09:16:46Z</time>
      </trkpt>
      <trkpt lat="45.4045" lon="5.71668">
        <ele>466.4621</ele>
        <time>2020-08-12T09:16:51Z</time>
      </trkpt>
      <trkpt lat="45.40424" lon="5.71733">
        <ele>465.26508</ele>
        <time>2020-08-12T09:16:56Z</time>
      </trkpt>
      <trkpt lat="45.40439" lon="5.71812">
        <ele>460.5866</ele>
        <time>2020-08-12T09:17:01Z</time>
      </trkpt>
      <trkpt lat="45.40469" lon="5.71909">
        <ele>451.26526</ele>
        <time>2020-08-12T09:17:07Z</time>
      </trkpt>
      <trkpt lat="45.40463" lon="5.72026">
        <ele>447.9369</ele>
        <time>2020-08-12T09:17:16Z</time>
      </trkpt>
      <trkpt lat="45.40423" lon="5.72061">
        <ele>448.41174</ele>
        <time>2020-08-12T09:17:21Z</time>
      </trkpt>
      <trkpt lat="45.40391" lon="5.72092">
        <ele>440.96442</ele>
        <time>2020-08-12T09:17:26Z</time>
      </trkpt>
      <trkpt lat="45.40375" lon="5.72113">
        <ele>439.1545</ele>
        <time>2020-08-12T09:17:31Z</time>
      </trkpt>
      <trkpt lat="45.404" lon="5.72086">
        <ele>411.69632</ele>
        <time>2020-08-12T09:22:01Z</time>
      </trkpt>
      <trkpt lat="45.4042" lon="5.72067">
        <ele>413.4703</ele>
        <time>2020-08-12T09:22:06Z</time>
      </trkpt>
      <trkpt lat="45.40441" lon="5.72043">
        <ele>413.46396</ele>
        <time>2020-08-12T09:22:11Z</time>
      </trkpt>
      <trkpt lat="45.40463" lon="5.7202">
        <ele>413.4872</ele>
        <time>2020-08-12T09:22:16Z</time>
      </trkpt>
      <trkpt lat="45.40483" lon="5.71998">
        <ele>413.23694</ele>
        <time>2020-08-12T09:22:21Z</time>
      </trkpt>
      <trkpt lat="45.40495" lon="5.71975">
        <ele>412.32565</ele>
        <time>2020-08-12T09:22:26Z</time>
      </trkpt>
      <trkpt lat="45.40491" lon="5.71946">
        <ele>415.70065</ele>
        <time>2020-08-12T09:22:31Z</time>
      </trkpt>
      <trkpt lat="45.40482" lon="5.71923">
        <ele>417.0039</ele>
        <time>2020-08-12T09:22:36Z</time>
      </trkpt>
      <trkpt lat="45.40474" lon="5.71898">
        <ele>418.22485</ele>
        <time>2020-08-12T09:22:42Z</time>
      </trkpt>
      <trkpt lat="45.4046" lon="5.71859">
        <ele>419.4353</ele>
        <time>2020-08-12T09:22:52Z</time>
      </trkpt>
      <trkpt lat="45.4045" lon="5.71821">
        <ele>419.68457</ele>
        <time>2020-08-12T09:23:01Z</time>
      </trkpt>
      <trkpt lat="45.40445" lon="5.71797">
        <ele>420.39124</ele>
        <time>2020-08-12T09:23:06Z</time>
      </trkpt>
      <trkpt lat="45.40439" lon="5.71777">
        <ele>422.10565</ele>
        <time>2020-08-12T09:23:11Z</time>
      </trkpt>
      <trkpt lat="45.40432" lon="5.71755">
        <ele>424.6295</ele>
        <time>2020-08-12T09:23:16Z</time>
      </trkpt>
      <trkpt lat="45.4043" lon="5.71727">
        <ele>427.06696</ele>
        <time>2020-08-12T09:23:21Z</time>
      </trkpt>
      <trkpt lat="45.40434" lon="5.71701">
        <ele>427.75165</ele>
        <time>2020-08-12T09:23:27Z</time>
      </trkpt>
      <trkpt lat="45.40456" lon="5.7167">
        <ele>429.6389</ele>
        <time>2020-08-12T09:23:37Z</time>
      </trkpt>
      <trkpt lat="45.40465" lon="5.71635">
        <ele>430.78864</ele>
        <time>2020-08-12T09:23:46Z</time>
      </trkpt>
      <trkpt lat="45.40468" lon="5.71616">
        <ele>432.44992</ele>
        <time>2020-08-12T09:23:51Z</time>
      </trkpt>
      <trkpt lat="45.40464" lon="5.71602">
        <ele>433.5195</ele>
        <time>2020-08-12T09:23:56Z</time>
      </trkpt>
      <trkpt lat="45.40456" lon="5.71586">
        <ele>432.67294</ele>
        <time>2020-08-12T09:24:01Z</time>
      </trkpt>
      <trkpt lat="45.40448" lon="5.71568">
        <ele>433.54697</ele>
        <time>2020-08-12T09:24:06Z</time>
      </trkpt>
      <trkpt lat="45.4044" lon="5.71551">
        <ele>434.44852</ele>
        <time>2020-08-12T09:24:11Z</time>
      </trkpt>
      <trkpt lat="45.40432" lon="5.71531">
        <ele>436.56778</ele>
        <time>2020-08-12T09:24:16Z</time>
      </trkpt>
      <trkpt lat="45.40424" lon="5.71508">
        <ele>437.71576</ele>
        <time>2020-08-12T09:24:22Z</time>
      </trkpt>
      <trkpt lat="45.40408" lon="5.71477">
        <ele>435.1662</ele>
        <time>2020-08-12T09:24:31Z</time>
      </trkpt>
      <trkpt lat="45.40399" lon="5.7146">
        <ele>438.57837</ele>
        <time>2020-08-12T09:24:36Z</time>
      </trkpt>
      <trkpt lat="45.40389" lon="5.71441">
        <ele>442.378</ele>
        <time>2020-08-12T09:24:41Z</time>
      </trkpt>
      <trkpt lat="45.40382" lon="5.71425">
        <ele>442.95212</ele>
        <time>2020-08-12T09:24:46Z</time>
      </trkpt>
      <trkpt lat="45.40375" lon="5.7141">
        <ele>443.95554</ele>
        <time>2020-08-12T09:24:51Z</time>
      </trkpt>
      <trkpt lat="45.40368" lon="5.71394">
        <ele>444.48636</ele>
        <time>2020-08-12T09:24:56Z</time>
      </trkpt>
      <trkpt lat="45.40365" lon="5.71376">
        <ele>445.17474</ele>
        <time>2020-08-12T09:25:01Z</time>
      </trkpt>
      <trkpt lat="45.40375" lon="5.71357">
        <ele>445.7193</ele>
        <time>2020-08-12T09:25:07Z</time>
      </trkpt>
      <trkpt lat="45.404" lon="5.71335">
        <ele>447.42715</ele>
        <time>2020-08-12T09:25:17Z</time>
      </trkpt>
      <trkpt lat="45.40424" lon="5.71327">
        <ele>449.64914</ele>
        <time>2020-08-12T09:25:26Z</time>
      </trkpt>
      <trkpt lat="45.40439" lon="5.71323">
        <ele>450.77237</ele>
        <time>2020-08-12T09:25:31Z</time>
      </trkpt>
      <trkpt lat="45.40456" lon="5.71318">
        <ele>452.05432</ele>
        <time>2020-08-12T09:25:36Z</time>
      </trkpt>
      <trkpt lat="45.40466" lon="5.71312">
        <ele>452.7334</ele>
        <time>2020-08-12T09:25:41Z</time>
      </trkpt>
      <trkpt lat="45.40477" lon="5.71304">
        <ele>453.6008</ele>
        <time>2020-08-12T09:25:46Z</time>
      </trkpt>
      <trkpt lat="45.40493" lon="5.71288">
        <ele>454.80038</ele>
        <time>2020-08-12T09:25:52Z</time>
      </trkpt>
      <trkpt lat="45.40516" lon="5.71262">
        <ele>456.95325</ele>
        <time>2020-08-12T09:26:02Z</time>
      </trkpt>
      <trkpt lat="45.40538" lon="5.71245">
        <ele>457.80283</ele>
        <time>2020-08-12T09:26:11Z</time>
      </trkpt>
      <trkpt lat="45.40554" lon="5.71235">
        <ele>456.24442</ele>
        <time>2020-08-12T09:26:16Z</time>
      </trkpt>
      <trkpt lat="45.40567" lon="5.7122">
        <ele>460.82257</ele>
        <time>2020-08-12T09:26:21Z</time>
      </trkpt>
      <trkpt lat="45.40575" lon="5.71206">
        <ele>461.12518</ele>
        <time>2020-08-12T09:26:26Z</time>
      </trkpt>
      <trkpt lat="45.40584" lon="5.71192">
        <ele>462.1675</ele>
        <time>2020-08-12T09:26:31Z</time>
      </trkpt>
      <trkpt lat="45.40595" lon="5.71173">
        <ele>464.53375</ele>
        <time>2020-08-12T09:26:37Z</time>
      </trkpt>
      <trkpt lat="45.40614" lon="5.71146">
        <ele>467.35327</ele>
        <time>2020-08-12T09:26:47Z</time>
      </trkpt>
      <trkpt lat="45.40638" lon="5.71127">
        <ele>469.0299</ele>
        <time>2020-08-12T09:26:56Z</time>
      </trkpt>
      <trkpt lat="45.40652" lon="5.71112">
        <ele>470.1202</ele>
        <time>2020-08-12T09:27:01Z</time>
      </trkpt>
      <trkpt lat="45.40664" lon="5.71105">
        <ele>472.38034</ele>
        <time>2020-08-12T09:27:06Z</time>
      </trkpt>
      <trkpt lat="45.40673" lon="5.71104">
        <ele>473.16907</ele>
        <time>2020-08-12T09:27:11Z</time>
      </trkpt>
      <trkpt lat="45.40681" lon="5.711">
        <ele>475.25903</ele>
        <time>2020-08-12T09:27:16Z</time>
      </trkpt>
      <trkpt lat="45.40691" lon="5.71095">
        <ele>476.22574</ele>
        <time>2020-08-12T09:27:21Z</time>
      </trkpt>
      <trkpt lat="45.40698" lon="5.71095">
        <ele>476.74884</ele>
        <time>2020-08-12T09:27:26Z</time>
      </trkpt>
      <trkpt lat="45.40712" lon="5.71104">
        <ele>477.3704</ele>
        <time>2020-08-12T09:27:32Z</time>
      </trkpt>
      <trkpt lat="45.40741" lon="5.71085">
        <ele>479.25635</ele>
        <time>2020-08-12T09:27:42Z</time>
      </trkpt>
      <trkpt lat="45.40772" lon="5.7106">
        <ele>481.84042</ele>
        <time>2020-08-12T09:27:51Z</time>
      </trkpt>
      <trkpt lat="45.40792" lon="5.71056">
        <ele>482.1391</ele>
        <time>2020-08-12T09:27:56Z</time>
      </trkpt>
      <trkpt lat="45.40816" lon="5.71051">
        <ele>486.49988</ele>
        <time>2020-08-12T09:28:01Z</time>
      </trkpt>
      <trkpt lat="45.40833" lon="5.71048">
        <ele>486.17996</ele>
        <time>2020-08-12T09:28:06Z</time>
      </trkpt>
      <trkpt lat="45.4085" lon="5.71041">
        <ele>486.81448</ele>
        <time>2020-08-12T09:28:11Z</time>
      </trkpt>
      <trkpt lat="45.40872" lon="5.71027">
        <ele>487.22656</ele>
        <time>2020-08-12T09:28:17Z</time>
      </trkpt>
      <trkpt lat="45.40904" lon="5.71013">
        <ele>488.40353</ele>
        <time>2020-08-12T09:28:27Z</time>
      </trkpt>
      <trkpt lat="45.4094" lon="5.7101">
        <ele>489.96408</ele>
        <time>2020-08-12T09:28:36Z</time>
      </trkpt>
      <trkpt lat="45.4096" lon="5.71016">
        <ele>491.08395</ele>
        <time>2020-08-12T09:28:41Z</time>
      </trkpt>
      <trkpt lat="45.40977" lon="5.7102">
        <ele>490.6464</ele>
        <time>2020-08-12T09:28:46Z</time>
      </trkpt>
      <trkpt lat="45.40995" lon="5.71022">
        <ele>491.41452</ele>
        <time>2020-08-12T09:28:51Z</time>
      </trkpt>
      <trkpt lat="45.41011" lon="5.71022">
        <ele>492.2675</ele>
        <time>2020-08-12T09:28:56Z</time>
      </trkpt>
      <trkpt lat="45.41029" lon="5.71014">
        <ele>493.50296</ele>
        <time>2020-08-12T09:29:02Z</time>
      </trkpt>
      <trkpt lat="45.41069" lon="5.70997">
        <ele>495.79083</ele>
        <time>2020-08-12T09:29:12Z</time>
      </trkpt>
      <trkpt lat="45.41103" lon="5.70983">
        <ele>496.503</ele>
        <time>2020-08-12T09:29:21Z</time>
      </trkpt>
      <trkpt lat="45.41118" lon="5.70962">
        <ele>496.72342</ele>
        <time>2020-08-12T09:29:26Z</time>
      </trkpt>
      <trkpt lat="45.41127" lon="5.70921">
        <ele>497.57336</ele>
        <time>2020-08-12T09:29:31Z</time>
      </trkpt>
      <trkpt lat="45.41122" lon="5.70882">
        <ele>498.62473</ele>
        <time>2020-08-12T09:29:36Z</time>
      </trkpt>
      <trkpt lat="45.4112" lon="5.70837">
        <ele>498.99146</ele>
        <time>2020-08-12T09:29:41Z</time>
      </trkpt>
      <trkpt lat="45.41119" lon="5.70794">
        <ele>499.42282</ele>
        <time>2020-08-12T09:29:46Z</time>
      </trkpt>
      <trkpt lat="45.41113" lon="5.70749">
        <ele>499.20236</ele>
        <time>2020-08-12T09:29:51Z</time>
      </trkpt>
      <trkpt lat="45.41103" lon="5.70694">
        <ele>499.3974</ele>
        <time>2020-08-12T09:29:57Z</time>
      </trkpt>
      <trkpt lat="45.41076" lon="5.70612">
        <ele>499.33167</ele>
        <time>2020-08-12T09:30:07Z</time>
      </trkpt>
      <trkpt lat="45.41042" lon="5.70544">
        <ele>498.87698</ele>
        <time>2020-08-12T09:30:16Z</time>
      </trkpt>
      <trkpt lat="45.41031" lon="5.70501">
        <ele>498.59082</ele>
        <time>2020-08-12T09:30:21Z</time>
      </trkpt>
      <trkpt lat="45.41023" lon="5.70459">
        <ele>500.06833</ele>
        <time>2020-08-12T09:30:26Z</time>
      </trkpt>
      <trkpt lat="45.41015" lon="5.7042">
        <ele>501.7155</ele>
        <time>2020-08-12T09:30:31Z</time>
      </trkpt>
      <trkpt lat="45.41008" lon="5.7038">
        <ele>502.90698</ele>
        <time>2020-08-12T09:30:36Z</time>
      </trkpt>
      <trkpt lat="45.41016" lon="5.70334">
        <ele>502.70663</ele>
        <time>2020-08-12T09:30:42Z</time>
      </trkpt>
      <trkpt lat="45.41069" lon="5.70323">
        <ele>505.74493</ele>
        <time>2020-08-12T09:30:52Z</time>
      </trkpt>
      <trkpt lat="45.41115" lon="5.70339">
        <ele>507.65973</ele>
        <time>2020-08-12T09:31:01Z</time>
      </trkpt>
      <trkpt lat="45.41144" lon="5.70346">
        <ele>508.2906</ele>
        <time>2020-08-12T09:31:06Z</time>
      </trkpt>
      <trkpt lat="45.41172" lon="5.70353">
        <ele>506.08313</ele>
        <time>2020-08-12T09:31:11Z</time>
      </trkpt>
      <trkpt lat="45.41203" lon="5.70353">
        <ele>506.25278</ele>
        <time>2020-08-12T09:31:16Z</time>
      </trkpt>
      <trkpt lat="45.41222" lon="5.70318">
        <ele>508.65958</ele>
        <time>2020-08-12T09:31:21Z</time>
      </trkpt>
      <trkpt lat="45.41241" lon="5.7028">
        <ele>508.14746</ele>
        <time>2020-08-12T09:31:27Z</time>
      </trkpt>
      <trkpt lat="45.41259" lon="5.70265">
        <ele>474.1897</ele>
        <time>2020-08-12T09:31:46Z</time>
      </trkpt>
      <trkpt lat="45.41243" lon="5.7028">
        <ele>505.9326</ele>
        <time>2020-08-12T09:40:01Z</time>
      </trkpt>
      <trkpt lat="45.41229" lon="5.70299">
        <ele>507.84103</ele>
        <time>2020-08-12T09:40:06Z</time>
      </trkpt>
      <trkpt lat="45.4122" lon="5.70325">
        <ele>507.7456</ele>
        <time>2020-08-12T09:40:11Z</time>
      </trkpt>
      <trkpt lat="45.41208" lon="5.70349">
        <ele>507.70953</ele>
        <time>2020-08-12T09:40:16Z</time>
      </trkpt>
      <trkpt lat="45.4118" lon="5.7035">
        <ele>508.01172</ele>
        <time>2020-08-12T09:40:22Z</time>
      </trkpt>
      <trkpt lat="45.41129" lon="5.70339">
        <ele>506.30154</ele>
        <time>2020-08-12T09:40:32Z</time>
      </trkpt>
      <trkpt lat="45.41075" lon="5.70324">
        <ele>509.1187</ele>
        <time>2020-08-12T09:40:41Z</time>
      </trkpt>
      <trkpt lat="45.41041" lon="5.70319">
        <ele>508.39874</ele>
        <time>2020-08-12T09:40:46Z</time>
      </trkpt>
      <trkpt lat="45.41013" lon="5.70334">
        <ele>506.90268</ele>
        <time>2020-08-12T09:40:51Z</time>
      </trkpt>
      <trkpt lat="45.41001" lon="5.7036">
        <ele>506.2199</ele>
        <time>2020-08-12T09:40:56Z</time>
      </trkpt>
      <trkpt lat="45.40997" lon="5.70393">
        <ele>506.39377</ele>
        <time>2020-08-12T09:41:01Z</time>
      </trkpt>
      <trkpt lat="45.41004" lon="5.70428">
        <ele>506.11282</ele>
        <time>2020-08-12T09:41:07Z</time>
      </trkpt>
      <trkpt lat="45.4102" lon="5.70492">
        <ele>506.83167</ele>
        <time>2020-08-12T09:41:17Z</time>
      </trkpt>
      <trkpt lat="45.41036" lon="5.70555">
        <ele>504.1844</ele>
        <time>2020-08-12T09:41:26Z</time>
      </trkpt>
      <trkpt lat="45.41052" lon="5.70588">
        <ele>503.00238</ele>
        <time>2020-08-12T09:41:31Z</time>
      </trkpt>
      <trkpt lat="45.41065" lon="5.7062">
        <ele>503.56</ele>
        <time>2020-08-12T09:41:36Z</time>
      </trkpt>
      <trkpt lat="45.4108" lon="5.70654">
        <ele>503.7487</ele>
        <time>2020-08-12T09:41:41Z</time>
      </trkpt>
      <trkpt lat="45.41092" lon="5.70692">
        <ele>503.92255</ele>
        <time>2020-08-12T09:41:46Z</time>
      </trkpt>
      <trkpt lat="45.41101" lon="5.70728">
        <ele>504.96042</ele>
        <time>2020-08-12T09:41:51Z</time>
      </trkpt>
      <trkpt lat="45.4111" lon="5.70761">
        <ele>503.30344</ele>
        <time>2020-08-12T09:41:56Z</time>
      </trkpt>
      <trkpt lat="45.41121" lon="5.70799">
        <ele>503.0681</ele>
        <time>2020-08-12T09:42:02Z</time>
      </trkpt>
      <trkpt lat="45.41137" lon="5.70873">
        <ele>504.4929</ele>
        <time>2020-08-12T09:42:11Z</time>
      </trkpt>
      <trkpt lat="45.41147" lon="5.70918">
        <ele>505.30603</ele>
        <time>2020-08-12T09:42:16Z</time>
      </trkpt>
      <trkpt lat="45.41143" lon="5.7096">
        <ele>505.38022</ele>
        <time>2020-08-12T09:42:21Z</time>
      </trkpt>
      <trkpt lat="45.41116" lon="5.70987">
        <ele>506.09903</ele>
        <time>2020-08-12T09:42:26Z</time>
      </trkpt>
      <trkpt lat="45.41085" lon="5.71">
        <ele>506.55283</ele>
        <time>2020-08-12T09:42:31Z</time>
      </trkpt>
      <trkpt lat="45.41044" lon="5.71013">
        <ele>506.151</ele>
        <time>2020-08-12T09:42:36Z</time>
      </trkpt>
      <trkpt lat="45.41" lon="5.71017">
        <ele>503.96494</ele>
        <time>2020-08-12T09:42:41Z</time>
      </trkpt>
      <trkpt lat="45.40956" lon="5.7101">
        <ele>503.65646</ele>
        <time>2020-08-12T09:42:47Z</time>
      </trkpt>
      <trkpt lat="45.40876" lon="5.71038">
        <ele>500.82617</ele>
        <time>2020-08-12T09:42:57Z</time>
      </trkpt>
      <trkpt lat="45.40797" lon="5.71063">
        <ele>492.67117</ele>
        <time>2020-08-12T09:43:06Z</time>
      </trkpt>
      <trkpt lat="45.4076" lon="5.71102">
        <ele>493.06216</ele>
        <time>2020-08-12T09:43:11Z</time>
      </trkpt>
      <trkpt lat="45.40717" lon="5.71119">
        <ele>492.07144</ele>
        <time>2020-08-12T09:43:16Z</time>
      </trkpt>
      <trkpt lat="45.4066" lon="5.71128">
        <ele>490.37833</ele>
        <time>2020-08-12T09:43:21Z</time>
      </trkpt>
      <trkpt lat="45.40611" lon="5.71164">
        <ele>487.56662</ele>
        <time>2020-08-12T09:43:26Z</time>
      </trkpt>
      <trkpt lat="45.40565" lon="5.71234">
        <ele>482.16238</ele>
        <time>2020-08-12T09:43:32Z</time>
      </trkpt>
      <trkpt lat="45.40457" lon="5.71333">
        <ele>473.98322</ele>
        <time>2020-08-12T09:43:42Z</time>
      </trkpt>
      <trkpt lat="45.40364" lon="5.71371">
        <ele>465.43335</ele>
        <time>2020-08-12T09:43:51Z</time>
      </trkpt>
      <trkpt lat="45.40381" lon="5.71435">
        <ele>464.6618</ele>
        <time>2020-08-12T09:43:56Z</time>
      </trkpt>
      <trkpt lat="45.40413" lon="5.71503">
        <ele>462.82147</ele>
        <time>2020-08-12T09:44:01Z</time>
      </trkpt>
      <trkpt lat="45.40446" lon="5.71573">
        <ele>458.3403</ele>
        <time>2020-08-12T09:44:06Z</time>
      </trkpt>
      <trkpt lat="45.40454" lon="5.71653">
        <ele>453.4601</ele>
        <time>2020-08-12T09:44:11Z</time>
      </trkpt>
      <trkpt lat="45.40422" lon="5.71717">
        <ele>449.86386</ele>
        <time>2020-08-12T09:44:16Z</time>
      </trkpt>
      <trkpt lat="45.40434" lon="5.71799">
        <ele>447.12683</ele>
        <time>2020-08-12T09:44:21Z</time>
      </trkpt>
      <trkpt lat="45.40462" lon="5.71899">
        <ele>441.4074</ele>
        <time>2020-08-12T09:44:27Z</time>
      </trkpt>
      <trkpt lat="45.40451" lon="5.72023">
        <ele>439.5055</ele>
        <time>2020-08-12T09:44:37Z</time>
      </trkpt>
      <trkpt lat="45.4039" lon="5.72084">
        <ele>437.68298</ele>
        <time>2020-08-12T09:44:46Z</time>
      </trkpt>
      <trkpt lat="45.40369" lon="5.72106">
        <ele>435.10382</ele>
        <time>2020-08-12T09:44:51Z</time>
      </trkpt>
      <trkpt lat="45.4036" lon="5.72114">
        <ele>431.90988</ele>
        <time>2020-08-12T09:44:56Z</time>
      </trkpt>
      <trkpt lat="45.40345" lon="5.72137">
        <ele>424.2502</ele>
        <time>2020-08-12T09:45:12Z</time>
      </trkpt>
      <trkpt lat="45.4031" lon="5.72175">
        <ele>428.18805</ele>
        <time>2020-08-12T09:45:22Z</time>
      </trkpt>
      <trkpt lat="45.40272" lon="5.72217">
        <ele>428.66565</ele>
        <time>2020-08-12T09:45:31Z</time>
      </trkpt>
      <trkpt lat="45.4025" lon="5.72239">
        <ele>429.09256</ele>
        <time>2020-08-12T09:45:36Z</time>
      </trkpt>
      <trkpt lat="45.40228" lon="5.72261">
        <ele>426.85565</ele>
        <time>2020-08-12T09:45:41Z</time>
      </trkpt>
      <trkpt lat="45.40207" lon="5.72283">
        <ele>425.13873</ele>
        <time>2020-08-12T09:45:46Z</time>
      </trkpt>
      <trkpt lat="45.40184" lon="5.72299">
        <ele>428.13733</ele>
        <time>2020-08-12T09:45:51Z</time>
      </trkpt>
      <trkpt lat="45.40156" lon="5.72311">
        <ele>428.672</ele>
        <time>2020-08-12T09:45:57Z</time>
      </trkpt>
      <trkpt lat="45.40105" lon="5.7233">
        <ele>429.1697</ele>
        <time>2020-08-12T09:46:07Z</time>
      </trkpt>
      <trkpt lat="45.4007" lon="5.72314">
        <ele>425.3363</ele>
        <time>2020-08-12T09:46:16Z</time>
      </trkpt>
      <trkpt lat="45.40049" lon="5.72325">
        <ele>426.12027</ele>
        <time>2020-08-12T09:46:21Z</time>
      </trkpt>
      <trkpt lat="45.40033" lon="5.72337">
        <ele>424.22485</ele>
        <time>2020-08-12T09:46:26Z</time>
      </trkpt>
      <trkpt lat="45.40013" lon="5.72348">
        <ele>424.92108</ele>
        <time>2020-08-12T09:46:31Z</time>
      </trkpt>
      <trkpt lat="45.3999" lon="5.72358">
        <ele>425.1229</ele>
        <time>2020-08-12T09:46:36Z</time>
      </trkpt>
      <trkpt lat="45.39965" lon="5.72376">
        <ele>427.71573</ele>
        <time>2020-08-12T09:46:41Z</time>
      </trkpt>
      <trkpt lat="45.39944" lon="5.72401">
        <ele>427.1557</ele>
        <time>2020-08-12T09:46:46Z</time>
      </trkpt>
      <trkpt lat="45.39922" lon="5.72437">
        <ele>423.94702</ele>
        <time>2020-08-12T09:46:52Z</time>
      </trkpt>
      <trkpt lat="45.3988" lon="5.72492">
        <ele>421.287</ele>
        <time>2020-08-12T09:47:02Z</time>
      </trkpt>
      <trkpt lat="45.39838" lon="5.72532">
        <ele>421.32712</ele>
        <time>2020-08-12T09:47:11Z</time>
      </trkpt>
      <trkpt lat="45.39815" lon="5.72551">
        <ele>429.24155</ele>
        <time>2020-08-12T09:47:16Z</time>
      </trkpt>
      <trkpt lat="45.39792" lon="5.72574">
        <ele>427.28778</ele>
        <time>2020-08-12T09:47:21Z</time>
      </trkpt>
      <trkpt lat="45.39769" lon="5.72596">
        <ele>425.79272</ele>
        <time>2020-08-12T09:47:26Z</time>
      </trkpt>
      <trkpt lat="45.39745" lon="5.72616">
        <ele>422.65817</ele>
        <time>2020-08-12T09:47:31Z</time>
      </trkpt>
      <trkpt lat="45.39715" lon="5.72645">
        <ele>424.1361</ele>
        <time>2020-08-12T09:47:37Z</time>
      </trkpt>
      <trkpt lat="45.39666" lon="5.7269">
        <ele>425.77264</ele>
        <time>2020-08-12T09:47:47Z</time>
      </trkpt>
      <trkpt lat="45.39626" lon="5.72727">
        <ele>420.83066</ele>
        <time>2020-08-12T09:47:56Z</time>
      </trkpt>
      <trkpt lat="45.39601" lon="5.72748">
        <ele>418.96527</ele>
        <time>2020-08-12T09:48:01Z</time>
      </trkpt>
      <trkpt lat="45.39576" lon="5.72771">
        <ele>420.06168</ele>
        <time>2020-08-12T09:48:06Z</time>
      </trkpt>
      <trkpt lat="45.39553" lon="5.72794">
        <ele>421.34402</ele>
        <time>2020-08-12T09:48:11Z</time>
      </trkpt>
      <trkpt lat="45.39531" lon="5.72821">
        <ele>421.0641</ele>
        <time>2020-08-12T09:48:16Z</time>
      </trkpt>
      <trkpt lat="45.39505" lon="5.72857">
        <ele>421.29965</ele>
        <time>2020-08-12T09:48:22Z</time>
      </trkpt>
      <trkpt lat="45.39462" lon="5.72916">
        <ele>421.11798</ele>
        <time>2020-08-12T09:48:32Z</time>
      </trkpt>
      <trkpt lat="45.39418" lon="5.72962">
        <ele>422.05496</ele>
        <time>2020-08-12T09:48:41Z</time>
      </trkpt>
      <trkpt lat="45.39392" lon="5.72983">
        <ele>421.4275</ele>
        <time>2020-08-12T09:48:46Z</time>
      </trkpt>
      <trkpt lat="45.39365" lon="5.73005">
        <ele>422.56625</ele>
        <time>2020-08-12T09:48:51Z</time>
      </trkpt>
      <trkpt lat="45.39339" lon="5.7303">
        <ele>422.30322</ele>
        <time>2020-08-12T09:48:56Z</time>
      </trkpt>
      <trkpt lat="45.39313" lon="5.73055">
        <ele>421.5067</ele>
        <time>2020-08-12T09:49:01Z</time>
      </trkpt>
      <trkpt lat="45.39287" lon="5.73075">
        <ele>420.97748</ele>
        <time>2020-08-12T09:49:06Z</time>
      </trkpt>
      <trkpt lat="45.3926" lon="5.73073">
        <ele>421.58487</ele>
        <time>2020-08-12T09:49:11Z</time>
      </trkpt>
      <trkpt lat="45.39228" lon="5.73074">
        <ele>421.06198</ele>
        <time>2020-08-12T09:49:17Z</time>
      </trkpt>
      <trkpt lat="45.39184" lon="5.73126">
        <ele>422.23032</ele>
        <time>2020-08-12T09:49:27Z</time>
      </trkpt>
      <trkpt lat="45.39143" lon="5.73176">
        <ele>423.91425</ele>
        <time>2020-08-12T09:49:36Z</time>
      </trkpt>
      <trkpt lat="45.39124" lon="5.73201">
        <ele>425.02887</ele>
        <time>2020-08-12T09:49:41Z</time>
      </trkpt>
      <trkpt lat="45.39103" lon="5.73226">
        <ele>424.52173</ele>
        <time>2020-08-12T09:49:46Z</time>
      </trkpt>
      <trkpt lat="45.3908" lon="5.73249">
        <ele>423.7727</ele>
        <time>2020-08-12T09:49:51Z</time>
      </trkpt>
      <trkpt lat="45.39055" lon="5.73274">
        <ele>425.4166</ele>
        <time>2020-08-12T09:49:56Z</time>
      </trkpt>
      <trkpt lat="45.39029" lon="5.733">
        <ele>424.40234</ele>
        <time>2020-08-12T09:50:02Z</time>
      </trkpt>
      <trkpt lat="45.38971" lon="5.73328">
        <ele>426.30728</ele>
        <time>2020-08-12T09:50:12Z</time>
      </trkpt>
      <trkpt lat="45.38919" lon="5.7336">
        <ele>425.50006</ele>
        <time>2020-08-12T09:50:21Z</time>
      </trkpt>
      <trkpt lat="45.38892" lon="5.73374">
        <ele>423.42618</ele>
        <time>2020-08-12T09:50:26Z</time>
      </trkpt>
      <trkpt lat="45.38867" lon="5.73383">
        <ele>423.15466</ele>
        <time>2020-08-12T09:50:31Z</time>
      </trkpt>
      <trkpt lat="45.38843" lon="5.73388">
        <ele>423.87833</ele>
        <time>2020-08-12T09:50:36Z</time>
      </trkpt>
      <trkpt lat="45.38816" lon="5.73391">
        <ele>425.33524</ele>
        <time>2020-08-12T09:50:41Z</time>
      </trkpt>
      <trkpt lat="45.38784" lon="5.73393">
        <ele>425.1493</ele>
        <time>2020-08-12T09:50:47Z</time>
      </trkpt>
      <trkpt lat="45.38748" lon="5.73418">
        <ele>424.7172</ele>
        <time>2020-08-12T09:50:57Z</time>
      </trkpt>
      <trkpt lat="45.38741" lon="5.73473">
        <ele>423.38074</ele>
        <time>2020-08-12T09:51:06Z</time>
      </trkpt>
      <trkpt lat="45.38739" lon="5.73492">
        <ele>422.48914</ele>
        <time>2020-08-12T09:51:11Z</time>
      </trkpt>
      <trkpt lat="45.38735" lon="5.73525">
        <ele>421.67996</ele>
        <time>2020-08-12T09:51:16Z</time>
      </trkpt>
      <trkpt lat="45.38731" lon="5.73551">
        <ele>423.22864</ele>
        <time>2020-08-12T09:51:21Z</time>
      </trkpt>
      <trkpt lat="45.3873" lon="5.73562">
        <ele>422.42365</ele>
        <time>2020-08-12T09:51:26Z</time>
      </trkpt>
      <trkpt lat="45.38725" lon="5.73565">
        <ele>421.35458</ele>
        <time>2020-08-12T09:51:32Z</time>
      </trkpt>
      <trkpt lat="45.387" lon="5.73565">
        <ele>419.20398</ele>
        <time>2020-08-12T09:52:16Z</time>
      </trkpt>
      <trkpt lat="45.38681" lon="5.73566">
        <ele>420.87607</ele>
        <time>2020-08-12T09:52:21Z</time>
      </trkpt>
      <trkpt lat="45.38658" lon="5.73569">
        <ele>421.7824</ele>
        <time>2020-08-12T09:52:27Z</time>
      </trkpt>
      <trkpt lat="45.38647" lon="5.7357">
        <ele>407.82568</ele>
        <time>2020-08-12T09:52:37Z</time>
      </trkpt>
      <trkpt lat="45.38642" lon="5.73565">
        <ele>397.18637</ele>
        <time>2020-08-12T09:54:07Z</time>
      </trkpt>
      <trkpt lat="45.38638" lon="5.73574">
        <ele>415.0628</ele>
        <time>2020-08-12T09:55:26Z</time>
      </trkpt>
      <trkpt lat="45.38642" lon="5.73574">
        <ele>405.46307</ele>
        <time>2020-08-12T09:55:47Z</time>
      </trkpt>
      <trkpt lat="45.38653" lon="5.73579">
        <ele>414.3056</ele>
        <time>2020-08-12T09:56:21Z</time>
      </trkpt>
      <trkpt lat="45.38636" lon="5.73572">
        <ele>417.55417</ele>
        <time>2020-08-12T10:01:06Z</time>
      </trkpt>
      <trkpt lat="45.3864" lon="5.73568">
        <ele>416.24243</ele>
        <time>2020-08-12T10:02:17Z</time>
      </trkpt>
      <trkpt lat="45.38638" lon="5.73575">
        <ele>416.25934</ele>
        <time>2020-08-12T10:03:02Z</time>
      </trkpt>
      <trkpt lat="45.38637" lon="5.73585">
        <ele>415.95096</ele>
        <time>2020-08-12T10:04:51Z</time>
      </trkpt>
      <trkpt lat="45.38638" lon="5.73581">
        <ele>414.972</ele>
        <time>2020-08-12T10:05:07Z</time>
      </trkpt>
      <trkpt lat="45.38638" lon="5.7358">
        <ele>415.83688</ele>
        <time>2020-08-12T10:05:36Z</time>
      </trkpt>
      <trkpt lat="45.3864" lon="5.73579">
        <ele>416.30475</ele>
        <time>2020-08-12T10:05:56Z</time>
      </trkpt>
      <trkpt lat="45.38644" lon="5.73577">
        <ele>411.9339</ele>
        <time>2020-08-12T10:06:12Z</time>
      </trkpt>
      <trkpt lat="45.38643" lon="5.73578">
        <ele>415.96997</ele>
        <time>2020-08-12T10:07:26Z</time>
      </trkpt>
      <trkpt lat="45.38644" lon="5.73574">
        <ele>407.2989</ele>
        <time>2020-08-12T10:07:42Z</time>
      </trkpt>
      <trkpt lat="45.38643" lon="5.73579">
        <ele>419.13214</ele>
        <time>2020-08-12T10:08:31Z</time>
      </trkpt>
      <trkpt lat="45.38641" lon="5.73579">
        <ele>418.60614</ele>
        <time>2020-08-12T10:09:41Z</time>
      </trkpt>
      <trkpt lat="45.3864" lon="5.73569">
        <ele>418.20056</ele>
        <time>2020-08-12T10:09:51Z</time>
      </trkpt>
      <trkpt lat="45.38639" lon="5.73566">
        <ele>416.32376</ele>
        <time>2020-08-12T10:10:11Z</time>
      </trkpt>
      <trkpt lat="45.38637" lon="5.73571">
        <ele>415.82422</ele>
        <time>2020-08-12T10:10:26Z</time>
      </trkpt>
      <trkpt lat="45.38636" lon="5.7357">
        <ele>414.12292</ele>
        <time>2020-08-12T10:10:36Z</time>
      </trkpt>
      <trkpt lat="45.38635" lon="5.73568">
        <ele>415.35428</ele>
        <time>2020-08-12T10:10:46Z</time>
      </trkpt>
      <trkpt lat="45.38636" lon="5.7357">
        <ele>419.3624</ele>
        <time>2020-08-12T10:12:16Z</time>
      </trkpt>
      <trkpt lat="45.38635" lon="5.73577">
        <ele>416.9321</ele>
        <time>2020-08-12T10:12:32Z</time>
      </trkpt>
      <trkpt lat="45.3863" lon="5.73579">
        <ele>417.8573</ele>
        <time>2020-08-12T10:12:42Z</time>
      </trkpt>
      <trkpt lat="45.38623" lon="5.7358">
        <ele>413.83884</ele>
        <time>2020-08-12T10:12:51Z</time>
      </trkpt>
      <trkpt lat="45.38619" lon="5.73581">
        <ele>412.43335</ele>
        <time>2020-08-12T10:12:56Z</time>
      </trkpt>
      <trkpt lat="45.38613" lon="5.73582">
        <ele>418.2428</ele>
        <time>2020-08-12T10:13:11Z</time>
      </trkpt>
      <trkpt lat="45.38603" lon="5.73577">
        <ele>418.51953</ele>
        <time>2020-08-12T10:13:17Z</time>
      </trkpt>
      <trkpt lat="45.38582" lon="5.73566">
        <ele>420.5106</ele>
        <time>2020-08-12T10:13:27Z</time>
      </trkpt>
      <trkpt lat="45.38562" lon="5.73555">
        <ele>420.49792</ele>
        <time>2020-08-12T10:13:36Z</time>
      </trkpt>
      <trkpt lat="45.38549" lon="5.73547">
        <ele>420.33948</ele>
        <time>2020-08-12T10:13:41Z</time>
      </trkpt>
      <trkpt lat="45.38535" lon="5.73541">
        <ele>420.7208</ele>
        <time>2020-08-12T10:13:46Z</time>
      </trkpt>
      <trkpt lat="45.38522" lon="5.73533">
        <ele>420.81482</ele>
        <time>2020-08-12T10:13:51Z</time>
      </trkpt>
      <trkpt lat="45.38509" lon="5.7353">
        <ele>420.29617</ele>
        <time>2020-08-12T10:13:56Z</time>
      </trkpt>
      <trkpt lat="45.38496" lon="5.7353">
        <ele>418.3178</ele>
        <time>2020-08-12T10:14:01Z</time>
      </trkpt>
      <trkpt lat="45.38488" lon="5.73527">
        <ele>420.4081</ele>
        <time>2020-08-12T10:14:06Z</time>
      </trkpt>
      <trkpt lat="45.3847" lon="5.73529">
        <ele>420.6141</ele>
        <time>2020-08-12T10:14:12Z</time>
      </trkpt>
      <trkpt lat="45.38443" lon="5.73535">
        <ele>421.88596</ele>
        <time>2020-08-12T10:14:22Z</time>
      </trkpt>
      <trkpt lat="45.38421" lon="5.73534">
        <ele>422.29477</ele>
        <time>2020-08-12T10:14:31Z</time>
      </trkpt>
      <trkpt lat="45.38406" lon="5.73529">
        <ele>422.84833</ele>
        <time>2020-08-12T10:14:36Z</time>
      </trkpt>
      <trkpt lat="45.38393" lon="5.73525">
        <ele>422.861</ele>
        <time>2020-08-12T10:14:41Z</time>
      </trkpt>
      <trkpt lat="45.38382" lon="5.73521">
        <ele>423.43253</ele>
        <time>2020-08-12T10:14:46Z</time>
      </trkpt>
      <trkpt lat="45.38375" lon="5.73521">
        <ele>422.6772</ele>
        <time>2020-08-12T10:14:51Z</time>
      </trkpt>
      <trkpt lat="45.38365" lon="5.73517">
        <ele>422.917</ele>
        <time>2020-08-12T10:14:57Z</time>
      </trkpt>
      <trkpt lat="45.38353" lon="5.73517">
        <ele>422.91382</ele>
        <time>2020-08-12T10:15:07Z</time>
      </trkpt>
      <trkpt lat="45.38343" lon="5.73523">
        <ele>422.35287</ele>
        <time>2020-08-12T10:15:16Z</time>
      </trkpt>
      <trkpt lat="45.38347" lon="5.73531">
        <ele>422.61908</ele>
        <time>2020-08-12T10:15:21Z</time>
      </trkpt>
      <trkpt lat="45.38358" lon="5.7353">
        <ele>422.46378</ele>
        <time>2020-08-12T10:15:26Z</time>
      </trkpt>
      <trkpt lat="45.38366" lon="5.73528">
        <ele>422.03067</ele>
        <time>2020-08-12T10:15:31Z</time>
      </trkpt>
      <trkpt lat="45.38363" lon="5.73523">
        <ele>422.79337</ele>
        <time>2020-08-12T10:15:36Z</time>
      </trkpt>
      <trkpt lat="45.38351" lon="5.7353">
        <ele>422.7131</ele>
        <time>2020-08-12T10:15:42Z</time>
      </trkpt>
      <trkpt lat="45.38318" lon="5.73534">
        <ele>422.48914</ele>
        <time>2020-08-12T10:15:52Z</time>
      </trkpt>
      <trkpt lat="45.38284" lon="5.73531">
        <ele>423.3459</ele>
        <time>2020-08-12T10:16:01Z</time>
      </trkpt>
      <trkpt lat="45.38265" lon="5.73536">
        <ele>424.21112</ele>
        <time>2020-08-12T10:16:06Z</time>
      </trkpt>
      <trkpt lat="45.38239" lon="5.73545">
        <ele>424.66754</ele>
        <time>2020-08-12T10:16:11Z</time>
      </trkpt>
      <trkpt lat="45.38216" lon="5.73556">
        <ele>425.4356</ele>
        <time>2020-08-12T10:16:16Z</time>
      </trkpt>
      <trkpt lat="45.38194" lon="5.73566">
        <ele>425.89944</ele>
        <time>2020-08-12T10:16:21Z</time>
      </trkpt>
      <trkpt lat="45.38168" lon="5.73575">
        <ele>424.003</ele>
        <time>2020-08-12T10:16:26Z</time>
      </trkpt>
      <trkpt lat="45.38142" lon="5.736">
        <ele>424.4911</ele>
        <time>2020-08-12T10:16:31Z</time>
      </trkpt>
      <trkpt lat="45.38115" lon="5.73631">
        <ele>424.90735</ele>
        <time>2020-08-12T10:16:37Z</time>
      </trkpt>
      <trkpt lat="45.3808" lon="5.73692">
        <ele>424.9961</ele>
        <time>2020-08-12T10:16:47Z</time>
      </trkpt>
      <trkpt lat="45.38052" lon="5.73748">
        <ele>425.8762</ele>
        <time>2020-08-12T10:16:56Z</time>
      </trkpt>
      <trkpt lat="45.38037" lon="5.73779">
        <ele>426.7394</ele>
        <time>2020-08-12T10:17:01Z</time>
      </trkpt>
      <trkpt lat="45.38022" lon="5.73801">
        <ele>427.23602</ele>
        <time>2020-08-12T10:17:06Z</time>
      </trkpt>
      <trkpt lat="45.38005" lon="5.73819">
        <ele>427.79813</ele>
        <time>2020-08-12T10:17:11Z</time>
      </trkpt>
      <trkpt lat="45.37985" lon="5.73851">
        <ele>428.39093</ele>
        <time>2020-08-12T10:17:16Z</time>
      </trkpt>
      <trkpt lat="45.37967" lon="5.73897">
        <ele>428.82523</ele>
        <time>2020-08-12T10:17:22Z</time>
      </trkpt>
      <trkpt lat="45.37951" lon="5.73966">
        <ele>429.57758</ele>
        <time>2020-08-12T10:17:32Z</time>
      </trkpt>
      <trkpt lat="45.37928" lon="5.74002">
        <ele>429.548</ele>
        <time>2020-08-12T10:17:41Z</time>
      </trkpt>
      <trkpt lat="45.37911" lon="5.74025">
        <ele>429.8016</ele>
        <time>2020-08-12T10:17:46Z</time>
      </trkpt>
      <trkpt lat="45.37891" lon="5.74061">
        <ele>430.6523</ele>
        <time>2020-08-12T10:17:51Z</time>
      </trkpt>
      <trkpt lat="45.37881" lon="5.74099">
        <ele>431.64673</ele>
        <time>2020-08-12T10:17:56Z</time>
      </trkpt>
      <trkpt lat="45.37872" lon="5.74142">
        <ele>432.55246</ele>
        <time>2020-08-12T10:18:01Z</time>
      </trkpt>
      <trkpt lat="45.37871" lon="5.74191">
        <ele>434.19064</ele>
        <time>2020-08-12T10:18:07Z</time>
      </trkpt>
      <trkpt lat="45.37897" lon="5.7427">
        <ele>435.90186</ele>
        <time>2020-08-12T10:18:17Z</time>
      </trkpt>
      <trkpt lat="45.37927" lon="5.74327">
        <ele>434.4644</ele>
        <time>2020-08-12T10:18:26Z</time>
      </trkpt>
      <trkpt lat="45.37941" lon="5.74356">
        <ele>435.46744</ele>
        <time>2020-08-12T10:18:31Z</time>
      </trkpt>
      <trkpt lat="45.37957" lon="5.74384">
        <ele>436.3902</ele>
        <time>2020-08-12T10:18:36Z</time>
      </trkpt>
      <trkpt lat="45.3797" lon="5.74411">
        <ele>436.4367</ele>
        <time>2020-08-12T10:18:41Z</time>
      </trkpt>
      <trkpt lat="45.37977" lon="5.74432">
        <ele>436.46313</ele>
        <time>2020-08-12T10:18:46Z</time>
      </trkpt>
      <trkpt lat="45.37975" lon="5.74457">
        <ele>437.08893</ele>
        <time>2020-08-12T10:18:51Z</time>
      </trkpt>
      <trkpt lat="45.37973" lon="5.74487">
        <ele>437.50116</ele>
        <time>2020-08-12T10:18:56Z</time>
      </trkpt>
      <trkpt lat="45.37972" lon="5.74534">
        <ele>439.19363</ele>
        <time>2020-08-12T10:19:02Z</time>
      </trkpt>
      <trkpt lat="45.37985" lon="5.74593">
        <ele>439.37228</ele>
        <time>2020-08-12T10:19:12Z</time>
      </trkpt>
      <trkpt lat="45.37992" lon="5.74643">
        <ele>443.79376</ele>
        <time>2020-08-12T10:19:21Z</time>
      </trkpt>
      <trkpt lat="45.37983" lon="5.74665">
        <ele>445.13138</ele>
        <time>2020-08-12T10:19:26Z</time>
      </trkpt>
      <trkpt lat="45.37969" lon="5.74687">
        <ele>445.05948</ele>
        <time>2020-08-12T10:19:31Z</time>
      </trkpt>
      <trkpt lat="45.37956" lon="5.74701">
        <ele>446.30725</ele>
        <time>2020-08-12T10:19:36Z</time>
      </trkpt>
      <trkpt lat="45.37937" lon="5.74711">
        <ele>447.20508</ele>
        <time>2020-08-12T10:19:41Z</time>
      </trkpt>
      <trkpt lat="45.37917" lon="5.74723">
        <ele>448.6529</ele>
        <time>2020-08-12T10:19:47Z</time>
      </trkpt>
      <trkpt lat="45.3788" lon="5.74735">
        <ele>438.87436</ele>
        <time>2020-08-12T10:19:57Z</time>
      </trkpt>
      <trkpt lat="45.37853" lon="5.74735">
        <ele>437.1735</ele>
        <time>2020-08-12T10:20:06Z</time>
      </trkpt>
      <trkpt lat="45.37839" lon="5.74737">
        <ele>427.82034</ele>
        <time>2020-08-12T10:20:11Z</time>
      </trkpt>
      <trkpt lat="45.37824" lon="5.7474">
        <ele>442.04285</ele>
        <time>2020-08-12T10:20:16Z</time>
      </trkpt>
      <trkpt lat="45.37807" lon="5.74753">
        <ele>439.8977</ele>
        <time>2020-08-12T10:20:21Z</time>
      </trkpt>
      <trkpt lat="45.37785" lon="5.7477">
        <ele>441.97516</ele>
        <time>2020-08-12T10:20:26Z</time>
      </trkpt>
      <trkpt lat="45.37404" lon="5.75032">
        <ele>470.7871</ele>
        <time>2020-08-12T10:21:56Z</time>
      </trkpt>
      <trkpt lat="45.37382" lon="5.75036">
        <ele>472.0871</ele>
        <time>2020-08-12T10:22:01Z</time>
      </trkpt>
      <trkpt lat="45.37355" lon="5.75029">
        <ele>473.0251</ele>
        <time>2020-08-12T10:22:06Z</time>
      </trkpt>
      <trkpt lat="45.37326" lon="5.75017">
        <ele>471.3556</ele>
        <time>2020-08-12T10:22:12Z</time>
      </trkpt>
      <trkpt lat="45.37297" lon="5.74979">
        <ele>470.89297</ele>
        <time>2020-08-12T10:22:22Z</time>
      </trkpt>
      <trkpt lat="45.37275" lon="5.74972">
        <ele>472.92664</ele>
        <time>2020-08-12T10:22:31Z</time>
      </trkpt>
      <trkpt lat="45.37253" lon="5.74972">
        <ele>477.0845</ele>
        <time>2020-08-12T10:22:36Z</time>
      </trkpt>
      <trkpt lat="45.37231" lon="5.7498">
        <ele>478.3626</ele>
        <time>2020-08-12T10:22:41Z</time>
      </trkpt>
      <trkpt lat="45.37209" lon="5.74985">
        <ele>479.88965</ele>
        <time>2020-08-12T10:22:46Z</time>
      </trkpt>
      <trkpt lat="45.37196" lon="5.74982">
        <ele>478.38272</ele>
        <time>2020-08-12T10:22:51Z</time>
      </trkpt>
      <trkpt lat="45.3717" lon="5.74979">
        <ele>480.94763</ele>
        <time>2020-08-12T10:22:57Z</time>
      </trkpt>
      <trkpt lat="45.37141" lon="5.74945">
        <ele>483.1135</ele>
        <time>2020-08-12T10:23:07Z</time>
      </trkpt>
      <trkpt lat="45.37108" lon="5.74913">
        <ele>484.77536</ele>
        <time>2020-08-12T10:23:16Z</time>
      </trkpt>
      <trkpt lat="45.37084" lon="5.74899">
        <ele>485.28275</ele>
        <time>2020-08-12T10:23:21Z</time>
      </trkpt>
      <trkpt lat="45.37059" lon="5.74901">
        <ele>485.34842</ele>
        <time>2020-08-12T10:23:26Z</time>
      </trkpt>
      <trkpt lat="45.37035" lon="5.74924">
        <ele>486.34097</ele>
        <time>2020-08-12T10:23:31Z</time>
      </trkpt>
      <trkpt lat="45.37001" lon="5.74945">
        <ele>485.65033</ele>
        <time>2020-08-12T10:23:36Z</time>
      </trkpt>
      <trkpt lat="45.36965" lon="5.74969">
        <ele>484.47562</ele>
        <time>2020-08-12T10:23:41Z</time>
      </trkpt>
      <trkpt lat="45.36921" lon="5.74975">
        <ele>483.7543</ele>
        <time>2020-08-12T10:23:46Z</time>
      </trkpt>
      <trkpt lat="45.36859" lon="5.74979">
        <ele>484.84103</ele>
        <time>2020-08-12T10:23:52Z</time>
      </trkpt>
      <trkpt lat="45.36802" lon="5.75012">
        <ele>485.69376</ele>
        <time>2020-08-12T10:24:02Z</time>
      </trkpt>
      <trkpt lat="45.36761" lon="5.75052">
        <ele>486.2308</ele>
        <time>2020-08-12T10:24:11Z</time>
      </trkpt>
      <trkpt lat="45.36729" lon="5.75068">
        <ele>482.40387</ele>
        <time>2020-08-12T10:24:16Z</time>
      </trkpt>
      <trkpt lat="45.36701" lon="5.75092">
        <ele>477.2719</ele>
        <time>2020-08-12T10:24:21Z</time>
      </trkpt>
      <trkpt lat="45.36662" lon="5.75091">
        <ele>479.95743</ele>
        <time>2020-08-12T10:24:26Z</time>
      </trkpt>
      <trkpt lat="45.36624" lon="5.751">
        <ele>482.96732</ele>
        <time>2020-08-12T10:24:31Z</time>
      </trkpt>
      <trkpt lat="45.36595" lon="5.75128">
        <ele>489.3157</ele>
        <time>2020-08-12T10:24:37Z</time>
      </trkpt>
      <trkpt lat="45.3658" lon="5.75171">
        <ele>491.60843</ele>
        <time>2020-08-12T10:24:47Z</time>
      </trkpt>
      <trkpt lat="45.36552" lon="5.75236">
        <ele>491.00027</ele>
        <time>2020-08-12T10:24:56Z</time>
      </trkpt>
      <trkpt lat="45.36527" lon="5.75272">
        <ele>490.14313</ele>
        <time>2020-08-12T10:25:01Z</time>
      </trkpt>
      <trkpt lat="45.36503" lon="5.75294">
        <ele>491.6254</ele>
        <time>2020-08-12T10:25:06Z</time>
      </trkpt>
      <trkpt lat="45.36482" lon="5.7531">
        <ele>492.66907</ele>
        <time>2020-08-12T10:25:11Z</time>
      </trkpt>
      <trkpt lat="45.36453" lon="5.75333">
        <ele>494.06778</ele>
        <time>2020-08-12T10:25:16Z</time>
      </trkpt>
      <trkpt lat="45.36418" lon="5.75356">
        <ele>496.22427</ele>
        <time>2020-08-12T10:25:22Z</time>
      </trkpt>
      <trkpt lat="45.36365" lon="5.75393">
        <ele>489.2924</ele>
        <time>2020-08-12T10:25:32Z</time>
      </trkpt>
      <trkpt lat="45.36317" lon="5.7541">
        <ele>499.86798</ele>
        <time>2020-08-12T10:25:41Z</time>
      </trkpt>
      <trkpt lat="45.36284" lon="5.754">
        <ele>500.0577</ele>
        <time>2020-08-12T10:25:46Z</time>
      </trkpt>
      <trkpt lat="45.36272" lon="5.75397">
        <ele>494.91125</ele>
        <time>2020-08-12T10:25:51Z</time>
      </trkpt>
      <trkpt lat="45.36254" lon="5.75401">
        <ele>497.3466</ele>
        <time>2020-08-12T10:25:56Z</time>
      </trkpt>
      <trkpt lat="45.36243" lon="5.75403">
        <ele>500.21353</ele>
        <time>2020-08-12T10:26:01Z</time>
      </trkpt>
      <trkpt lat="45.36223" lon="5.75406">
        <ele>502.2063</ele>
        <time>2020-08-12T10:26:06Z</time>
      </trkpt>
      <trkpt lat="45.36209" lon="5.75413">
        <ele>502.3282</ele>
        <time>2020-08-12T10:26:11Z</time>
      </trkpt>
      <trkpt lat="45.36192" lon="5.75417">
        <ele>500.38947</ele>
        <time>2020-08-12T10:26:17Z</time>
      </trkpt>
      <trkpt lat="45.36169" lon="5.75419">
        <ele>493.1745</ele>
        <time>2020-08-12T10:26:27Z</time>
      </trkpt>
      <trkpt lat="45.36173" lon="5.75425">
        <ele>487.27316</ele>
        <time>2020-08-12T10:26:36Z</time>
      </trkpt>
      <trkpt lat="45.36184" lon="5.75425">
        <ele>505.8149</ele>
        <time>2020-08-12T10:26:46Z</time>
      </trkpt>
      <trkpt lat="45.3619" lon="5.7542">
        <ele>506.22098</ele>
        <time>2020-08-12T10:26:56Z</time>
      </trkpt>
      <trkpt lat="45.36183" lon="5.75417">
        <ele>503.46353</ele>
        <time>2020-08-12T10:27:02Z</time>
      </trkpt>
      <trkpt lat="45.36161" lon="5.75417">
        <ele>503.29816</ele>
        <time>2020-08-12T10:27:12Z</time>
      </trkpt>
      <trkpt lat="45.36144" lon="5.7541">
        <ele>505.0463</ele>
        <time>2020-08-12T10:27:21Z</time>
      </trkpt>
      <trkpt lat="45.36135" lon="5.75408">
        <ele>504.6233</ele>
        <time>2020-08-12T10:27:26Z</time>
      </trkpt>
      <trkpt lat="45.36127" lon="5.75406">
        <ele>506.64505</ele>
        <time>2020-08-12T10:27:31Z</time>
      </trkpt>
      <trkpt lat="45.36119" lon="5.75412">
        <ele>505.42688</ele>
        <time>2020-08-12T10:27:36Z</time>
      </trkpt>
      <trkpt lat="45.36105" lon="5.75414">
        <ele>502.89426</ele>
        <time>2020-08-12T10:27:41Z</time>
      </trkpt>
      <trkpt lat="45.36085" lon="5.7542">
        <ele>494.54993</ele>
        <time>2020-08-12T10:27:47Z</time>
      </trkpt>
      <trkpt lat="45.36055" lon="5.75429">
        <ele>502.55823</ele>
        <time>2020-08-12T10:27:57Z</time>
      </trkpt>
      <trkpt lat="45.36041" lon="5.75436">
        <ele>508.85785</ele>
        <time>2020-08-12T10:28:06Z</time>
      </trkpt>
      <trkpt lat="45.36034" lon="5.75438">
        <ele>513.3796</ele>
        <time>2020-08-12T10:28:11Z</time>
      </trkpt>
      <trkpt lat="45.36023" lon="5.75441">
        <ele>513.5662</ele>
        <time>2020-08-12T10:28:16Z</time>
      </trkpt>
      <trkpt lat="45.36012" lon="5.75454">
        <ele>514.1516</ele>
        <time>2020-08-12T10:28:21Z</time>
      </trkpt>
      <trkpt lat="45.35999" lon="5.75459">
        <ele>511.8662</ele>
        <time>2020-08-12T10:28:26Z</time>
      </trkpt>
      <trkpt lat="45.35987" lon="5.75462">
        <ele>512.84717</ele>
        <time>2020-08-12T10:28:31Z</time>
      </trkpt>
      <trkpt lat="45.35969" lon="5.75473">
        <ele>513.81757</ele>
        <time>2020-08-12T10:28:36Z</time>
      </trkpt>
      <trkpt lat="45.35952" lon="5.75489">
        <ele>506.17007</ele>
        <time>2020-08-12T10:28:42Z</time>
      </trkpt>
      <trkpt lat="45.3593" lon="5.75508">
        <ele>514.92584</ele>
        <time>2020-08-12T10:28:52Z</time>
      </trkpt>
      <trkpt lat="45.35936" lon="5.75503">
        <ele>517.6613</ele>
        <time>2020-08-12T10:29:01Z</time>
      </trkpt>
      <trkpt lat="45.35944" lon="5.75499">
        <ele>515.0775</ele>
        <time>2020-08-12T10:29:06Z</time>
      </trkpt>
      <trkpt lat="45.35946" lon="5.75494">
        <ele>512.59265</ele>
        <time>2020-08-12T10:29:11Z</time>
      </trkpt>
      <trkpt lat="45.35932" lon="5.75504">
        <ele>520.5838</ele>
        <time>2020-08-12T10:29:16Z</time>
      </trkpt>
      <trkpt lat="45.35923" lon="5.75514">
        <ele>520.88196</ele>
        <time>2020-08-12T10:29:21Z</time>
      </trkpt>
      <trkpt lat="45.35915" lon="5.75518">
        <ele>519.0934</ele>
        <time>2020-08-12T10:29:27Z</time>
      </trkpt>
      <trkpt lat="45.35886" lon="5.75542">
        <ele>517.3696</ele>
        <time>2020-08-12T10:29:37Z</time>
      </trkpt>
      <trkpt lat="45.3586" lon="5.7556">
        <ele>517.08215</ele>
        <time>2020-08-12T10:29:47Z</time>
      </trkpt>
      <trkpt lat="45.35839" lon="5.75578">
        <ele>516.09894</ele>
        <time>2020-08-12T10:29:56Z</time>
      </trkpt>
      <trkpt lat="45.35827" lon="5.75592">
        <ele>517.20416</ele>
        <time>2020-08-12T10:30:01Z</time>
      </trkpt>
      <trkpt lat="45.35819" lon="5.75608">
        <ele>517.29645</ele>
        <time>2020-08-12T10:30:06Z</time>
      </trkpt>
      <trkpt lat="45.35808" lon="5.75621">
        <ele>519.39886</ele>
        <time>2020-08-12T10:30:12Z</time>
      </trkpt>
      <trkpt lat="45.35793" lon="5.75645">
        <ele>520.92224</ele>
        <time>2020-08-12T10:30:22Z</time>
      </trkpt>
      <trkpt lat="45.35771" lon="5.75651">
        <ele>520.5223</ele>
        <time>2020-08-12T10:30:31Z</time>
      </trkpt>
      <trkpt lat="45.35756" lon="5.75648">
        <ele>521.7922</ele>
        <time>2020-08-12T10:30:36Z</time>
      </trkpt>
      <trkpt lat="45.35743" lon="5.75647">
        <ele>522.04895</ele>
        <time>2020-08-12T10:30:41Z</time>
      </trkpt>
      <trkpt lat="45.35731" lon="5.75643">
        <ele>522.43616</ele>
        <time>2020-08-12T10:30:46Z</time>
      </trkpt>
      <trkpt lat="45.35718" lon="5.75643">
        <ele>526.22516</ele>
        <time>2020-08-12T10:30:51Z</time>
      </trkpt>
      <trkpt lat="45.35705" lon="5.75651">
        <ele>525.97363</ele>
        <time>2020-08-12T10:30:56Z</time>
      </trkpt>
      <trkpt lat="45.35693" lon="5.75664">
        <ele>526.88837</ele>
        <time>2020-08-12T10:31:01Z</time>
      </trkpt>
      <trkpt lat="45.35678" lon="5.75666">
        <ele>528.35706</ele>
        <time>2020-08-12T10:31:07Z</time>
      </trkpt>
      <trkpt lat="45.35649" lon="5.75678">
        <ele>530.2397</ele>
        <time>2020-08-12T10:31:17Z</time>
      </trkpt>
      <trkpt lat="45.35628" lon="5.75688">
        <ele>532.19684</ele>
        <time>2020-08-12T10:31:26Z</time>
      </trkpt>
      <trkpt lat="45.35614" lon="5.75691">
        <ele>534.52356</ele>
        <time>2020-08-12T10:31:31Z</time>
      </trkpt>
      <trkpt lat="45.35597" lon="5.75691">
        <ele>537.9545</ele>
        <time>2020-08-12T10:31:36Z</time>
      </trkpt>
      <trkpt lat="45.35583" lon="5.7569">
        <ele>536.6339</ele>
        <time>2020-08-12T10:31:41Z</time>
      </trkpt>
      <trkpt lat="45.35569" lon="5.75679">
        <ele>537.26025</ele>
        <time>2020-08-12T10:31:46Z</time>
      </trkpt>
      <trkpt lat="45.35555" lon="5.75671">
        <ele>531.16943</ele>
        <time>2020-08-12T10:31:52Z</time>
      </trkpt>
      <trkpt lat="45.35527" lon="5.75669">
        <ele>547.85876</ele>
        <time>2020-08-12T10:32:02Z</time>
      </trkpt>
      <trkpt lat="45.35503" lon="5.75678">
        <ele>547.61975</ele>
        <time>2020-08-12T10:32:11Z</time>
      </trkpt>
      <trkpt lat="45.35492" lon="5.75687">
        <ele>546.95703</ele>
        <time>2020-08-12T10:32:16Z</time>
      </trkpt>
      <trkpt lat="45.3548" lon="5.75699">
        <ele>548.26556</ele>
        <time>2020-08-12T10:32:21Z</time>
      </trkpt>
      <trkpt lat="45.35471" lon="5.75714">
        <ele>549.9969</ele>
        <time>2020-08-12T10:32:26Z</time>
      </trkpt>
      <trkpt lat="45.35464" lon="5.75733">
        <ele>550.8753</ele>
        <time>2020-08-12T10:32:31Z</time>
      </trkpt>
      <trkpt lat="45.35458" lon="5.75763">
        <ele>552.6504</ele>
        <time>2020-08-12T10:32:37Z</time>
      </trkpt>
      <trkpt lat="45.35437" lon="5.75798">
        <ele>547.1843</ele>
        <time>2020-08-12T10:32:47Z</time>
      </trkpt>
      <trkpt lat="45.3541" lon="5.75819">
        <ele>550.69366</ele>
        <time>2020-08-12T10:32:56Z</time>
      </trkpt>
      <trkpt lat="45.35407" lon="5.75825">
        <ele>548.0478</ele>
        <time>2020-08-12T10:33:06Z</time>
      </trkpt>
      <trkpt lat="45.35404" lon="5.75826">
        <ele>554.4023</ele>
        <time>2020-08-12T10:33:16Z</time>
      </trkpt>
      <trkpt lat="45.35403" lon="5.75831">
        <ele>558.80426</ele>
        <time>2020-08-12T10:33:32Z</time>
      </trkpt>
      <trkpt lat="45.35401" lon="5.75829">
        <ele>553.8891</ele>
        <time>2020-08-12T10:33:42Z</time>
      </trkpt>
      <trkpt lat="45.354" lon="5.75818">
        <ele>549.85455</ele>
        <time>2020-08-12T10:33:51Z</time>
      </trkpt>
      <trkpt lat="45.35397" lon="5.7582">
        <ele>530.55066</ele>
        <time>2020-08-12T10:34:11Z</time>
      </trkpt>
      <trkpt lat="45.35398" lon="5.75816">
        <ele>542.13574</ele>
        <time>2020-08-12T10:34:21Z</time>
      </trkpt>
      <trkpt lat="45.35397" lon="5.75822">
        <ele>558.1603</ele>
        <time>2020-08-12T10:34:36Z</time>
      </trkpt>
      <trkpt lat="45.35394" lon="5.75826">
        <ele>567.33215</ele>
        <time>2020-08-12T10:34:46Z</time>
      </trkpt>
      <trkpt lat="45.35397" lon="5.7583">
        <ele>552.61005</ele>
        <time>2020-08-12T10:35:02Z</time>
      </trkpt>
      <trkpt lat="45.35397" lon="5.75826">
        <ele>562.631</ele>
        <time>2020-08-12T10:35:16Z</time>
      </trkpt>
      <trkpt lat="45.35396" lon="5.75831">
        <ele>563.2995</ele>
        <time>2020-08-12T10:35:26Z</time>
      </trkpt>
      <trkpt lat="45.35397" lon="5.75835">
        <ele>559.631</ele>
        <time>2020-08-12T10:35:41Z</time>
      </trkpt>
      <trkpt lat="45.35405" lon="5.75828">
        <ele>556.6823</ele>
        <time>2020-08-12T10:36:16Z</time>
      </trkpt>
      <trkpt lat="45.35399" lon="5.75834">
        <ele>559.45667</ele>
        <time>2020-08-12T10:36:42Z</time>
      </trkpt>
      <trkpt lat="45.35408" lon="5.75829">
        <ele>568.122</ele>
        <time>2020-08-12T10:37:31Z</time>
      </trkpt>
      <trkpt lat="45.35415" lon="5.75823">
        <ele>541.68024</ele>
        <time>2020-08-12T10:37:41Z</time>
      </trkpt>
      <trkpt lat="45.35418" lon="5.75819">
        <ele>569.0809</ele>
        <time>2020-08-12T10:37:46Z</time>
      </trkpt>
      <trkpt lat="45.35424" lon="5.75812">
        <ele>567.87006</ele>
        <time>2020-08-12T10:37:56Z</time>
      </trkpt>
      <trkpt lat="45.35428" lon="5.75806">
        <ele>573.43243</ele>
        <time>2020-08-12T10:38:06Z</time>
      </trkpt>
      <trkpt lat="45.35436" lon="5.75795">
        <ele>568.6089</ele>
        <time>2020-08-12T10:38:32Z</time>
      </trkpt>
      <trkpt lat="45.35443" lon="5.75787">
        <ele>567.86475</ele>
        <time>2020-08-12T10:38:41Z</time>
      </trkpt>
      <trkpt lat="45.35449" lon="5.75782">
        <ele>567.7159</ele>
        <time>2020-08-12T10:38:46Z</time>
      </trkpt>
      <trkpt lat="45.35453" lon="5.75776">
        <ele>567.05896</ele>
        <time>2020-08-12T10:38:51Z</time>
      </trkpt>
      <trkpt lat="45.3546" lon="5.75747">
        <ele>573.6823</ele>
        <time>2020-08-12T10:39:07Z</time>
      </trkpt>
      <trkpt lat="45.35462" lon="5.75733">
        <ele>581.84235</ele>
        <time>2020-08-12T10:39:17Z</time>
      </trkpt>
      <trkpt lat="45.35464" lon="5.75722">
        <ele>582.46564</ele>
        <time>2020-08-12T10:39:26Z</time>
      </trkpt>
      <trkpt lat="45.35463" lon="5.75708">
        <ele>581.1616</ele>
        <time>2020-08-12T10:39:36Z</time>
      </trkpt>
      <trkpt lat="45.35463" lon="5.75701">
        <ele>580.1129</ele>
        <time>2020-08-12T10:39:41Z</time>
      </trkpt>
      <trkpt lat="45.35457" lon="5.75699">
        <ele>578.90576</ele>
        <time>2020-08-12T10:39:46Z</time>
      </trkpt>
      <trkpt lat="45.35452" lon="5.757">
        <ele>577.3701</ele>
        <time>2020-08-12T10:39:52Z</time>
      </trkpt>
      <trkpt lat="45.35443" lon="5.75714">
        <ele>574.60846</ele>
        <time>2020-08-12T10:40:02Z</time>
      </trkpt>
      <trkpt lat="45.35436" lon="5.75725">
        <ele>572.2288</ele>
        <time>2020-08-12T10:40:11Z</time>
      </trkpt>
      <trkpt lat="45.35431" lon="5.75733">
        <ele>572.1481</ele>
        <time>2020-08-12T10:40:16Z</time>
      </trkpt>
      <trkpt lat="45.35426" lon="5.75736">
        <ele>571.8376</ele>
        <time>2020-08-12T10:40:21Z</time>
      </trkpt>
      <trkpt lat="45.35422" lon="5.7574">
        <ele>571.3389</ele>
        <time>2020-08-12T10:40:26Z</time>
      </trkpt>
      <trkpt lat="45.35415" lon="5.75743">
        <ele>571.7982</ele>
        <time>2020-08-12T10:40:31Z</time>
      </trkpt>
      <trkpt lat="45.3541" lon="5.75744">
        <ele>571.0402</ele>
        <time>2020-08-12T10:40:36Z</time>
      </trkpt>
      <trkpt lat="45.35405" lon="5.75743">
        <ele>570.24493</ele>
        <time>2020-08-12T10:40:41Z</time>
      </trkpt>
      <trkpt lat="45.35401" lon="5.75741">
        <ele>570.0334</ele>
        <time>2020-08-12T10:40:47Z</time>
      </trkpt>
      <trkpt lat="45.35396" lon="5.7574">
        <ele>569.1925</ele>
        <time>2020-08-12T10:40:57Z</time>
      </trkpt>
      <trkpt lat="45.3539" lon="5.75738">
        <ele>567.95935</ele>
        <time>2020-08-12T10:41:06Z</time>
      </trkpt>
      <trkpt lat="45.35379" lon="5.75742">
        <ele>566.8931</ele>
        <time>2020-08-12T10:41:16Z</time>
      </trkpt>
      <trkpt lat="45.35374" lon="5.75747">
        <ele>566.48816</ele>
        <time>2020-08-12T10:41:21Z</time>
      </trkpt>
      <trkpt lat="45.3537" lon="5.75753">
        <ele>566.8942</ele>
        <time>2020-08-12T10:41:26Z</time>
      </trkpt>
      <trkpt lat="45.35365" lon="5.75756">
        <ele>565.74304</ele>
        <time>2020-08-12T10:41:32Z</time>
      </trkpt>
      <trkpt lat="45.35358" lon="5.75759">
        <ele>565.58466</ele>
        <time>2020-08-12T10:41:42Z</time>
      </trkpt>
      <trkpt lat="45.35354" lon="5.75759">
        <ele>564.32086</ele>
        <time>2020-08-12T10:42:01Z</time>
      </trkpt>
      <trkpt lat="45.3535" lon="5.75763">
        <ele>561.93805</ele>
        <time>2020-08-12T10:42:06Z</time>
      </trkpt>
      <trkpt lat="45.3534" lon="5.75771">
        <ele>559.58527</ele>
        <time>2020-08-12T10:42:17Z</time>
      </trkpt>
      <trkpt lat="45.35331" lon="5.75781">
        <ele>562.8244</ele>
        <time>2020-08-12T10:42:27Z</time>
      </trkpt>
      <trkpt lat="45.3533" lon="5.7579">
        <ele>562.47687</ele>
        <time>2020-08-12T10:42:46Z</time>
      </trkpt>
      <trkpt lat="45.35334" lon="5.75795">
        <ele>561.9253</ele>
        <time>2020-08-12T10:42:51Z</time>
      </trkpt>
      <trkpt lat="45.35327" lon="5.75811">
        <ele>561.5512</ele>
        <time>2020-08-12T10:43:26Z</time>
      </trkpt>
      <trkpt lat="45.35323" lon="5.75824">
        <ele>563.68317</ele>
        <time>2020-08-12T10:43:41Z</time>
      </trkpt>
      <trkpt lat="45.35318" lon="5.75827">
        <ele>563.26764</ele>
        <time>2020-08-12T10:43:47Z</time>
      </trkpt>
      <trkpt lat="45.35308" lon="5.7583">
        <ele>562.60547</ele>
        <time>2020-08-12T10:43:57Z</time>
      </trkpt>
      <trkpt lat="45.35298" lon="5.7583">
        <ele>562.30475</ele>
        <time>2020-08-12T10:44:07Z</time>
      </trkpt>
      <trkpt lat="45.35295" lon="5.75828">
        <ele>561.31744</ele>
        <time>2020-08-12T10:44:16Z</time>
      </trkpt>
      <trkpt lat="45.35286" lon="5.75837">
        <ele>560.3291</ele>
        <time>2020-08-12T10:44:26Z</time>
      </trkpt>
      <trkpt lat="45.35281" lon="5.7584">
        <ele>561.1963</ele>
        <time>2020-08-12T10:44:31Z</time>
      </trkpt>
      <trkpt lat="45.35276" lon="5.75842">
        <ele>561.4843</ele>
        <time>2020-08-12T10:44:36Z</time>
      </trkpt>
      <trkpt lat="45.35264" lon="5.75846">
        <ele>562.3621</ele>
        <time>2020-08-12T10:44:42Z</time>
      </trkpt>
      <trkpt lat="45.35256" lon="5.75851">
        <ele>563.4908</ele>
        <time>2020-08-12T10:44:52Z</time>
      </trkpt>
      <trkpt lat="45.35252" lon="5.75862">
        <ele>566.26495</ele>
        <time>2020-08-12T10:45:21Z</time>
      </trkpt>
      <trkpt lat="45.35253" lon="5.75865">
        <ele>569.2956</ele>
        <time>2020-08-12T10:45:31Z</time>
      </trkpt>
      <trkpt lat="45.35255" lon="5.75866">
        <ele>572.6882</ele>
        <time>2020-08-12T10:45:47Z</time>
      </trkpt>
      <trkpt lat="45.35251" lon="5.75872">
        <ele>576.11633</ele>
        <time>2020-08-12T10:46:01Z</time>
      </trkpt>
      <trkpt lat="45.35248" lon="5.75879">
        <ele>574.802</ele>
        <time>2020-08-12T10:46:11Z</time>
      </trkpt>
      <trkpt lat="45.35244" lon="5.75885">
        <ele>573.2559</ele>
        <time>2020-08-12T10:46:22Z</time>
      </trkpt>
      <trkpt lat="45.35239" lon="5.75885">
        <ele>568.94904</ele>
        <time>2020-08-12T10:46:36Z</time>
      </trkpt>
      <trkpt lat="45.35229" lon="5.75888">
        <ele>567.76904</ele>
        <time>2020-08-12T10:46:41Z</time>
      </trkpt>
      <trkpt lat="45.35239" lon="5.75888">
        <ele>568.1401</ele>
        <time>2020-08-12T10:47:46Z</time>
      </trkpt>
      <trkpt lat="45.35241" lon="5.75887">
        <ele>551.6784</ele>
        <time>2020-08-12T10:47:56Z</time>
      </trkpt>
      <trkpt lat="45.35229" lon="5.75898">
        <ele>565.1935</ele>
        <time>2020-08-12T10:50:27Z</time>
      </trkpt>
      <trkpt lat="45.35231" lon="5.75893">
        <ele>551.8537</ele>
        <time>2020-08-12T10:51:01Z</time>
      </trkpt>
      <trkpt lat="45.35231" lon="5.75889">
        <ele>563.5684</ele>
        <time>2020-08-12T10:52:01Z</time>
      </trkpt>
      <trkpt lat="45.3523" lon="5.75875">
        <ele>563.3154</ele>
        <time>2020-08-12T10:53:37Z</time>
      </trkpt>
      <trkpt lat="45.35231" lon="5.75894">
        <ele>563.6024</ele>
        <time>2020-08-12T10:53:47Z</time>
      </trkpt>
      <trkpt lat="45.35232" lon="5.75898">
        <ele>567.3024</ele>
        <time>2020-08-12T10:53:56Z</time>
      </trkpt>
    </trkseg>
  </trk>
</gpx>